Time;durP1;ratioP1;P1;durP2;ratioP2;P2;SDS_P1;SDS_P2;PMS_P1;PMS_P2;Temp;Humidity;BMP_temperature;BMP_pressure;BME280_temperature;BME280_humidity;BME280_pressure;Samples;Min_cycle;Max_cycle;Signal;HPM_P1;HPM_P2
2022/05/04 00:01:57;;;;;;;9.00;7.35;;;;;;;15.04;100.00;96268.28;5058623;28;20478;-57
2022/05/04 00:04:27;;;;;;;10.88;7.07;;;;;;;15.24;100.00;96270.44;5060940;28;20428;-58
2022/05/04 00:06:56;;;;;;;8.65;7.38;;;;;;;15.44;100.00;96271.63;5062891;28;20068;-58
2022/05/04 00:09:24;;;;;;;8.23;7.18;;;;;;;15.29;100.00;96270.75;5064468;28;20091;-57
2022/05/04 00:11:52;;;;;;;10.00;7.30;;;;;;;15.62;100.00;96272.13;5062076;28;20076;-53
2022/05/04 00:14:20;;;;;;;7.88;7.07;;;;;;;15.43;100.00;96272.63;5067137;28;20057;-59
2022/05/04 00:16:48;;;;;;;8.63;7.47;;;;;;;15.66;100.00;96268.13;5063776;28;20071;-58
2022/05/04 00:19:17;;;;;;;7.97;7.18;;;;;;;15.79;100.00;96264.81;5063903;28;20067;-57
2022/05/04 00:21:46;;;;;;;9.45;7.38;;;;;;;15.54;100.00;96269.53;5059225;28;20091;-56
2022/05/04 00:24:19;;;;;;;8.52;7.38;;;;;;;15.37;100.00;96268.03;5064428;28;20087;-58
2022/05/04 00:26:47;;;;;;;9.90;7.40;;;;;;;15.08;100.00;96269.59;5060204;28;20072;-57
2022/05/04 00:29:16;;;;;;;10.75;7.75;;;;;;;14.88;100.00;96271.88;5063125;28;20060;-59
2022/05/04 00:31:44;;;;;;;8.80;7.60;;;;;;;14.94;100.00;96273.84;5061271;28;20056;-59
2022/05/04 00:34:12;;;;;;;11.43;8.10;;;;;;;15.02;100.00;96269.47;5065683;28;20057;-55
2022/05/04 00:36:40;;;;;;;8.48;7.60;;;;;;;15.58;100.00;96272.66;5064993;28;20104;-55
2022/05/04 00:39:10;;;;;;;9.25;7.95;;;;;;;15.03;100.00;96265.81;5061162;28;20084;-58
2022/05/04 00:41:38;;;;;;;9.93;7.47;;;;;;;15.35;100.00;96264.75;5065194;28;20084;-58
2022/05/04 00:44:07;;;;;;;8.73;7.72;;;;;;;15.33;100.00;96264.91;5060371;28;20060;-58
2022/05/04 00:46:35;;;;;;;8.50;7.03;;;;;;;15.63;100.00;96263.16;5057397;28;20056;-59
2022/05/04 00:49:03;;;;;;;8.57;7.13;;;;;;;15.83;100.00;96257.34;5061723;28;20071;-59
2022/05/04 00:51:33;;;;;;;9.65;6.78;;;;;;;15.94;100.00;96262.19;5056338;28;20052;-56
2022/05/04 00:54:01;;;;;;;10.27;7.28;;;;;;;15.76;100.00;96267.03;5064279;28;20064;-55
2022/05/04 00:56:31;;;;;;;6.80;6.13;;;;;;;15.89;100.00;96270.69;5061721;28;20091;-56
2022/05/04 00:58:59;;;;;;;8.57;6.97;;;;;;;15.75;100.00;96274.19;5059881;28;20068;-58
2022/05/04 01:01:29;;;;;;;7.65;6.15;;;;;;;15.90;100.00;96261.75;5056561;28;20072;-57
2022/05/04 01:03:59;;;;;;;7.13;6.38;;;;;;;15.88;100.00;96265.59;5060217;28;20467;-58
2022/05/04 01:06:27;;;;;;;7.25;6.53;;;;;;;15.59;100.00;96271.66;5056392;28;20068;-58
2022/05/04 01:08:56;;;;;;;7.53;6.07;;;;;;;15.92;100.00;96266.03;5066274;28;20079;-55
2022/05/04 01:11:24;;;;;;;8.48;6.22;;;;;;;15.80;100.00;96271.00;5058272;28;20471;-57
2022/05/04 01:14:02;;;;;;;8.23;6.53;;;;;;;16.07;100.00;96266.84;5062328;28;20439;-56
2022/05/04 01:16:31;;;;;;;8.55;7.47;;;;;;;15.68;100.00;96272.44;5060829;28;20453;-55
2022/05/04 01:19:00;;;;;;;10.18;8.10;;;;;;;15.92;100.00;96271.34;5055857;28;20067;-54
2022/05/04 01:21:28;;;;;;;11.07;7.93;;;;;;;16.02;100.00;96267.41;5062447;28;20072;-54
2022/05/04 01:23:59;;;;;;;10.32;8.15;;;;;;;15.78;100.00;96276.47;5054970;28;20083;-57
2022/05/04 01:26:28;;;;;;;9.65;7.97;;;;;;;15.90;100.00;96267.06;5063261;28;21639;-55
2022/05/04 01:28:56;;;;;;;8.30;7.38;;;;;;;15.87;100.00;96274.56;5056464;28;20056;-58
2022/05/04 01:31:25;;;;;;;8.68;7.50;;;;;;;15.70;100.00;96271.25;5061232;28;20082;-57
2022/05/04 01:33:53;;;;;;;8.80;7.15;;;;;;;15.78;100.00;96270.34;5061520;28;20075;-56
2022/05/04 01:36:21;;;;;;;9.50;6.97;;;;;;;16.00;100.00;96271.25;5061442;28;20107;-56
2022/05/04 01:38:49;;;;;;;8.20;6.63;;;;;;;15.83;100.00;96270.63;5061591;28;20091;-58
2022/05/04 01:44:05;;;;;;;8.48;6.65;;;;;;;15.74;100.00;96274.38;5060933;28;20067;-58
2022/05/04 01:46:33;;;;;;;8.68;7.20;;;;;;;15.97;100.00;96275.13;5060616;28;20091;-58
2022/05/04 01:49:01;;;;;;;7.78;6.85;;;;;;;15.82;100.00;96283.06;5060413;28;20084;-55
2022/05/04 01:51:29;;;;;;;8.38;7.10;;;;;;;15.81;100.00;96276.13;5057472;28;20075;-57
2022/05/04 01:53:58;;;;;;;9.02;7.32;;;;;;;15.60;100.00;96278.63;5062708;28;20084;-54
2022/05/04 01:56:27;;;;;;;8.25;7.20;;;;;;;15.56;100.00;96282.66;5061940;28;20090;-54
2022/05/04 01:58:56;;;;;;;9.00;7.47;;;;;;;15.45;100.00;96283.91;5057140;28;20542;-55
2022/05/04 02:01:24;;;;;;;7.95;7.18;;;;;;;15.40;100.00;96279.13;5062220;28;20076;-57
2022/05/04 02:03:52;;;;;;;8.30;7.50;;;;;;;15.64;100.00;96279.91;5063588;28;20474;-53
2022/05/04 02:06:21;;;;;;;7.88;7.07;;;;;;;15.58;100.00;96275.31;5068970;28;20091;-55
2022/05/04 02:08:49;;;;;;;7.95;7.15;;;;;;;15.66;100.00;96277.94;5063764;28;20094;-58
2022/05/04 02:11:18;;;;;;;9.80;7.15;;;;;;;15.48;100.00;96280.06;5065882;28;20522;-53
2022/05/04 02:13:47;;;;;;;8.05;7.25;;;;;;;15.48;100.00;96272.09;5064805;28;20143;-58
2022/05/04 02:16:16;;;;;;;7.90;6.97;;;;;;;15.12;100.00;96272.72;5066258;28;20068;-58
2022/05/04 02:18:44;;;;;;;7.72;6.93;;;;;;;15.38;100.00;96265.19;5065949;28;21480;-56
2022/05/04 02:21:13;;;;;;;9.52;7.18;;;;;;;15.44;100.00;96267.13;5064859;28;20084;-58
2022/05/04 02:23:41;;;;;;;7.55;6.75;;;;;;;15.56;100.00;96266.72;5061642;28;20518;-58
2022/05/04 02:26:09;;;;;;;9.18;7.28;;;;;;;15.68;100.00;96252.00;5068449;28;20052;-54
2022/05/04 02:28:38;;;;;;;7.97;7.18;;;;;;;15.51;100.00;96263.75;5067224;28;20479;-57
2022/05/04 02:31:07;;;;;;;13.73;7.60;;;;;;;15.33;100.00;96264.91;5065699;28;20079;-58
2022/05/04 02:33:36;;;;;;;8.25;7.32;;;;;;;15.27;100.00;96267.44;5064317;28;20522;-54
2022/05/04 02:38:51;;;;;;;9.98;7.00;;;;;;;15.46;100.00;96266.13;5062747;28;20286;-56
2022/05/04 02:41:19;;;;;;;8.25;7.43;;;;;;;15.43;100.00;96270.78;5058100;28;20128;-53
2022/05/04 02:43:47;;;;;;;8.02;7.22;;;;;;;15.43;100.00;96268.13;5069725;28;20067;-57
2022/05/04 02:46:17;;;;;;;8.55;7.55;;;;;;;15.40;100.00;96271.16;5064015;28;20541;-56
2022/05/04 02:48:46;;;;;;;11.20;8.13;;;;;;;15.20;100.00;96269.97;5064352;28;20135;-53
2022/05/04 02:51:15;;;;;;;8.50;7.60;;;;;;;15.29;100.00;96270.75;5065781;28;20682;-59
2022/05/04 02:53:43;;;;;;;10.82;7.63;;;;;;;15.57;100.00;96271.00;5060206;28;20076;-58
2022/05/04 02:56:15;;;;;;;8.50;7.53;;;;;;;15.58;100.00;96267.34;5063811;28;21104;-58
2022/05/04 02:58:43;;;;;;;9.32;7.88;;;;;;;15.25;100.00;96267.63;5063516;28;20060;-59
2022/05/04 03:04:04;;;;;;;8.38;7.47;;;;;;;15.68;100.00;96259.97;5061843;28;20075;-55
2022/05/04 03:06:32;;;;;;;8.80;7.80;;;;;;;15.75;100.00;96260.88;5061995;28;20079;-58
2022/05/04 03:09:01;;;;;;;9.43;7.25;;;;;;;15.85;100.00;96258.78;5061514;28;20080;-58
2022/05/04 03:14:17;;;;;;;9.63;7.82;;;;;;;15.64;100.00;96256.00;5060586;28;20060;-59
2022/05/04 03:16:46;;;;;;;8.18;7.38;;;;;;;15.91;100.00;96257.25;5064814;28;20071;-59
2022/05/04 03:19:16;;;;;;;9.18;8.05;;;;;;;15.75;100.00;96258.22;5063658;28;20071;-52
2022/05/04 03:21:44;;;;;;;9.43;7.80;;;;;;;15.46;100.00;96261.66;5062727;28;20075;-59
2022/05/04 03:24:12;;;;;;;8.60;7.70;;;;;;;15.13;100.00;96267.22;5062564;28;20076;-58
2022/05/04 03:26:41;;;;;;;9.10;8.10;;;;;;;14.98;100.00;96257.56;5062287;28;20088;-56
2022/05/04 03:29:09;;;;;;;9.60;8.60;;;;;;;14.74;100.00;96256.72;5061626;28;20069;-56
2022/05/04 03:31:38;;;;;;;9.30;7.95;;;;;;;15.10;100.00;96261.44;5058696;28;20072;-58
2022/05/04 03:34:07;;;;;;;8.75;7.85;;;;;;;14.70;100.00;96260.72;5061788;28;20056;-58
2022/05/04 03:36:37;;;;;;;8.80;7.97;;;;;;;14.89;100.00;96256.78;5060243;28;20060;-58
2022/05/04 03:39:05;;;;;;;10.27;8.27;;;;;;;14.92;100.00;96265.22;5064429;28;20079;-55
2022/05/04 03:41:34;;;;;;;12.95;8.75;;;;;;;15.04;100.00;96262.16;5058236;28;20475;-58
2022/05/04 03:44:02;;;;;;;10.55;8.00;;;;;;;15.40;100.00;96268.50;5059153;28;20545;-59
2022/05/04 03:46:42;;;;;;;9.95;7.97;;;;;;;15.51;100.00;96267.22;5063236;28;20112;-60
2022/05/04 03:49:10;;;;;;;9.70;8.32;;;;;;;15.61;100.00;96267.81;5059719;28;20101;-56
2022/05/04 03:51:40;;;;;;;11.15;8.02;;;;;;;15.58;100.00;96265.50;5067929;28;20087;-57
2022/05/04 03:54:09;;;;;;;8.77;7.88;;;;;;;15.74;100.00;96267.22;5055794;28;20072;-56
2022/05/04 03:56:38;;;;;;;8.88;7.97;;;;;;;15.65;100.00;96268.25;5069152;28;20087;-58
2022/05/04 03:59:07;;;;;;;8.88;8.07;;;;;;;15.81;100.00;96260.16;5075327;28;20066;-59
2022/05/04 04:01:36;;;;;;;11.45;8.32;;;;;;;15.86;100.00;96263.13;5055753;28;20512;-57
2022/05/04 04:04:05;;;;;;;10.20;8.38;;;;;;;15.72;100.00;96265.75;5056324;28;20061;-59
2022/05/04 04:06:33;;;;;;;9.02;7.63;;;;;;;15.72;100.00;96273.72;5059780;28;20545;-58
2022/05/04 04:09:03;;;;;;;9.30;8.13;;;;;;;15.87;100.00;96264.75;5062215;28;20111;-57
2022/05/04 04:11:32;;;;;;;8.52;7.70;;;;;;;15.82;100.00;96268.97;5058076;28;20060;-58
2022/05/04 04:14:00;;;;;;;8.88;7.80;;;;;;;15.88;100.00;96266.41;5063060;28;20064;-56
2022/05/04 04:16:30;;;;;;;8.35;7.47;;;;;;;15.76;100.00;96273.19;5080199;28;20064;-58
2022/05/04 04:18:58;;;;;;;9.27;8.25;;;;;;;15.78;100.00;96271.16;5061695;28;20056;-58
2022/05/04 04:24:14;;;;;;;9.38;8.48;;;;;;;15.16;100.00;96281.97;5056376;28;20075;-59
2022/05/04 04:26:42;;;;;;;9.68;8.73;;;;;;;15.92;100.00;96276.69;5065706;28;20064;-58
2022/05/04 04:29:11;;;;;;;9.38;8.15;;;;;;;16.03;100.00;96273.56;5072790;28;20064;-57
2022/05/04 04:31:39;;;;;;;8.88;7.93;;;;;;;15.96;100.00;96280.63;5069138;28;20052;-58
2022/05/04 04:34:08;;;;;;;9.57;8.23;;;;;;;16.31;100.00;96279.91;5062561;28;20099;-57
2022/05/04 04:36:41;;;;;;;9.55;8.43;;;;;;;16.22;100.00;96281.00;5059354;28;20731;-59
2022/05/04 04:39:09;;;;;;;9.63;8.50;;;;;;;16.24;100.00;96284.31;5063481;28;20451;-57
2022/05/04 04:41:39;;;;;;;9.00;8.10;;;;;;;16.00;100.00;96288.06;5058783;28;20075;-60
2022/05/04 04:44:07;;;;;;;10.87;8.33;;;;;;;16.21;100.00;96286.50;5055743;28;20080;-58
2022/05/04 04:46:35;;;;;;;10.10;8.48;;;;;;;16.07;100.00;96288.13;5050130;28;20471;-57
2022/05/04 04:49:03;;;;;;;10.27;7.97;;;;;;;16.26;100.00;96287.59;5055972;28;20484;-58
2022/05/04 04:51:32;;;;;;;10.00;8.43;;;;;;;16.34;100.00;96284.84;5055937;28;20515;-59
2022/05/04 04:54:00;;;;;;;9.00;8.10;;;;;;;16.16;100.00;96279.06;5068135;28;20529;-57
2022/05/04 04:56:28;;;;;;;11.35;8.32;;;;;;;16.26;100.00;96282.28;5060373;28;20072;-56
2022/05/04 04:58:58;;;;;;;9.38;8.05;;;;;;;16.18;100.00;96286.88;5063752;28;20063;-58
2022/05/04 05:01:26;;;;;;;8.63;7.83;;;;;;;15.86;100.00;96289.72;5058330;28;20064;-56
2022/05/04 05:03:55;;;;;;;10.05;8.88;;;;;;;16.42;100.00;96286.59;5057992;28;20471;-58
2022/05/04 05:06:24;;;;;;;12.07;10.88;;;;;;;16.57;100.00;96286.56;5060834;28;20060;-57
2022/05/04 05:08:53;;;;;;;10.60;9.50;;;;;;;16.81;100.00;96288.09;5061074;28;20087;-59
2022/05/04 05:11:22;;;;;;;10.00;8.20;;;;;;;16.50;100.00;96288.31;5059749;28;20044;-59
2022/05/04 05:16:49;;;;;;;9.20;8.23;;;;;;;16.55;100.00;96293.91;5026063;28;20072;-58
2022/05/04 05:19:17;;;;;;;10.75;7.68;;;;;;;16.63;100.00;96288.47;5051572;28;20048;-55
2022/05/04 05:21:46;;;;;;;8.60;7.53;;;;;;;16.99;100.00;96288.50;5051558;28;20446;-59
2022/05/04 05:24:14;;;;;;;10.07;7.97;;;;;;;17.19;100.00;96294.03;5055608;28;20099;-59
2022/05/04 05:26:42;;;;;;;8.73;7.82;;;;;;;17.49;100.00;96288.56;5063730;28;20095;-55
2022/05/04 05:29:10;;;;;;;8.90;7.90;;;;;;;17.39;100.00;96285.41;5063446;28;20071;-59
2022/05/04 05:31:39;;;;;;;8.00;7.20;;;;;;;17.05;100.00;96294.91;5061626;28;20064;-60
2022/05/04 05:34:08;;;;;;;7.22;6.53;;;;;;;17.67;100.00;96288.09;5049690;28;20065;-58
2022/05/04 05:36:37;;;;;;;7.45;6.47;;;;;;;17.60;100.00;96289.91;5053547;28;20064;-58
2022/05/04 05:39:05;;;;;;;7.32;6.15;;;;;;;17.43;100.00;96286.66;5059644;28;20083;-54
2022/05/04 05:41:33;;;;;;;6.90;5.60;;;;;;;17.40;100.00;96295.88;5071551;28;20392;-58
2022/05/04 05:44:01;;;;;;;6.60;6.00;;;;;;;17.39;100.00;96296.06;5064708;28;20155;-59
2022/05/04 05:46:30;;;;;;;6.32;5.72;;;;;;;17.13;100.00;96304.63;5056304;28;20068;-56
2022/05/04 05:48:58;;;;;;;6.70;5.82;;;;;;;17.23;100.00;96307.81;5048780;28;20124;-57
2022/05/04 05:51:28;;;;;;;8.38;6.10;;;;;;;17.10;100.00;96297.81;5068935;28;20080;-57
2022/05/04 05:53:56;;;;;;;6.73;5.73;;;;;;;17.06;100.00;96300.03;5065950;28;20415;-59
2022/05/04 05:56:25;;;;;;;6.70;6.00;;;;;;;17.33;100.00;96295.81;5058666;28;20033;-59
2022/05/04 05:58:53;;;;;;;7.15;6.03;;;;;;;16.94;100.00;96303.41;5065928;28;20064;-56
2022/05/04 06:01:21;;;;;;;7.07;6.47;;;;;;;17.30;100.00;96296.19;5060156;28;20446;-58
2022/05/04 06:03:50;;;;;;;7.97;6.57;;;;;;;17.61;100.00;96304.88;5063687;28;20432;-58
2022/05/04 06:06:18;;;;;;;14.27;6.68;;;;;;;17.47;100.00;96303.94;5057760;28;20076;-57
2022/05/04 06:08:48;;;;;;;6.97;6.28;;;;;;;17.40;100.00;96306.53;5068385;28;20068;-57
2022/05/04 06:11:16;;;;;;;8.37;6.37;;;;;;;17.17;100.00;96306.75;5052053;28;20068;-56
2022/05/04 06:13:44;;;;;;;8.18;6.63;;;;;;;17.83;100.00;96308.38;5048139;28;20073;-58
2022/05/04 06:16:13;;;;;;;6.90;6.18;;;;;;;17.52;100.00;96306.88;5054798;28;20069;-58
2022/05/04 06:18:41;;;;;;;9.60;6.78;;;;;;;17.44;100.00;96314.97;5054809;28;20593;-60
2022/05/04 06:21:10;;;;;;;7.22;6.50;;;;;;;17.34;100.00;96315.28;5063240;28;20538;-58
2022/05/04 06:23:39;;;;;;;7.35;6.32;;;;;;;17.61;100.00;96312.88;5071887;28;20597;-58
2022/05/04 06:26:08;;;;;;;7.20;6.45;;;;;;;17.78;100.00;96322.28;5063297;28;20079;-57
2022/05/04 06:28:36;;;;;;;7.43;6.70;;;;;;;17.79;100.00;96318.59;5069326;28;20076;-59
2022/05/04 06:34:10;;;;;;;6.05;5.55;;;;;;;18.58;100.00;96317.44;5055023;28;20061;-57
2022/05/04 06:36:40;;;;;;;6.40;5.68;;;;;;;18.14;100.00;96321.31;5056307;28;20059;-58
2022/05/04 06:39:09;;;;;;;6.30;5.68;;;;;;;18.63;100.00;96323.03;5054672;28;20103;-56
2022/05/04 06:41:40;;;;;;;6.18;5.55;;;;;;;18.26;100.00;96325.06;5056611;28;20084;-58
2022/05/04 06:44:25;;;;;;;5.80;5.30;;;;;;;18.46;100.00;96318.00;5054860;28;20107;-59
2022/05/04 06:46:54;;;;;;;7.00;5.70;;;;;;;18.64;100.00;96324.66;5069610;28;20063;-58
2022/05/04 06:49:22;;;;;;;6.00;5.45;;;;;;;18.59;100.00;96329.78;5067518;28;20063;-59
2022/05/04 06:51:50;;;;;;;6.20;5.60;;;;;;;19.01;100.00;96327.94;5065014;28;20553;-59
2022/05/04 06:54:18;;;;;;;7.07;5.70;;;;;;;18.47;100.00;96326.84;5051351;28;20080;-58
2022/05/04 06:56:53;;;;;;;5.65;5.07;;;;;;;18.96;100.00;96326.69;5064270;28;20083;-59
2022/05/04 06:59:23;;;;;;;6.22;5.55;;;;;;;18.97;100.00;96323.00;5067374;28;20536;-59
2022/05/04 07:01:51;;;;;;;6.78;5.63;;;;;;;18.69;100.00;96320.38;5060279;28;20455;-60
2022/05/04 07:04:20;;;;;;;6.57;5.90;;;;;;;18.06;100.00;96335.63;5064427;28;20075;-59
2022/05/04 07:06:49;;;;;;;6.40;5.80;;;;;;;18.81;100.00;96326.00;5076010;28;20079;-59
2022/05/04 07:09:17;;;;;;;5.60;5.07;;;;;;;19.12;100.00;96330.84;5062655;28;20108;-58
2022/05/04 07:11:45;;;;;;;5.68;5.10;;;;;;;19.26;100.00;96326.34;5055925;28;20073;-58
2022/05/04 07:14:18;;;;;;;6.85;5.50;;;;;;;19.25;100.00;96329.25;5063650;28;20091;-56
2022/05/04 07:16:47;;;;;;;5.90;5.40;;;;;;;19.33;100.00;96331.72;5062108;28;20628;-59
2022/05/04 07:19:16;;;;;;;7.30;5.88;;;;;;;18.94;100.00;96323.38;5060315;28;20478;-60
2022/05/04 07:21:45;;;;;;;6.40;5.80;;;;;;;18.88;100.00;96326.03;5051998;28;20060;-58
2022/05/04 07:24:13;;;;;;;6.18;5.57;;;;;;;18.97;100.00;96331.00;5051238;28;20523;-56
2022/05/04 07:26:41;;;;;;;6.03;5.53;;;;;;;18.61;100.00;96339.22;5054501;28;20111;-58
2022/05/04 07:29:10;;;;;;;6.10;5.50;;;;;;;18.66;100.00;96328.78;5074048;28;20068;-58
2022/05/04 07:31:43;;;;;;;6.32;5.45;;;;;;;19.39;100.00;96333.59;5058639;28;20068;-60
2022/05/04 07:34:14;;;;;;;6.30;5.70;;;;;;;19.04;100.00;96330.22;5063290;28;20075;-60
2022/05/04 07:36:42;;;;;;;;;;;;;;;19.20;100.00;96332.50;5056462;28;20087;-58
2022/05/04 07:42:21;;;;;;;6.05;5.45;;;;;;;19.21;100.00;96339.50;5055165;28;20466;-58
2022/05/04 07:44:46;;;;;;;6.32;5.57;;;;;;;20.35;100.00;96334.03;5067233;28;20496;-56
2022/05/04 07:47:16;;;;;;;7.85;5.60;;;;;;;20.28;100.00;96332.41;5070865;28;20549;-57
2022/05/04 07:49:44;;;;;;;7.28;5.32;;;;;;;20.60;100.00;96331.50;5053571;28;20076;-58
2022/05/04 07:52:12;;;;;;;6.75;5.88;;;;;;;20.55;100.00;96334.00;5051190;28;20061;-59
2022/05/04 07:54:41;;;;;;;6.47;5.70;;;;;;;19.73;100.00;96342.50;5055503;28;20090;-58
2022/05/04 07:57:09;;;;;;;6.85;5.75;;;;;;;20.52;100.00;96337.09;5060918;28;20072;-59
2022/05/04 07:59:37;;;;;;;6.68;6.07;;;;;;;20.63;100.00;96333.78;5055643;28;20080;-59
2022/05/04 08:04:53;;;;;;;6.97;6.28;;;;;;;21.09;100.00;96340.81;5062493;28;20573;-58
2022/05/04 08:07:22;;;;;;;7.90;6.30;;;;;;;21.88;100.00;96344.06;5050449;28;20099;-60
2022/05/04 08:09:51;;;;;;;7.13;6.40;;;;;;;21.29;100.00;96346.06;5056303;28;20060;-58
2022/05/04 08:12:20;;;;;;;7.80;6.13;;;;;;;19.92;100.00;96344.34;5062491;28;20069;-54
2022/05/04 08:14:48;;;;;;;8.32;6.30;;;;;;;20.92;100.00;96347.72;5063595;28;20087;-59
2022/05/04 08:17:19;;;;;;;7.50;6.80;;;;;;;20.38;100.00;96359.56;5061586;28;20082;-52
2022/05/04 08:19:47;;;;;;;7.75;7.05;;;;;;;20.66;100.00;96353.16;5049606;28;20104;-59
2022/05/04 08:22:18;;;;;;;8.52;6.20;;;;;;;21.17;100.00;96349.66;5060199;28;20060;-58
2022/05/04 08:24:46;;;;;;;6.97;6.28;;;;;;;20.83;100.00;96344.44;5050393;28;20069;-56
2022/05/04 08:27:15;;;;;;;7.47;6.72;;;;;;;21.87;100.00;96346.97;5071273;28;20072;-59
2022/05/04 08:29:44;;;;;;;7.50;6.80;;;;;;;20.80;100.00;96347.53;5064990;28;20073;-58
2022/05/04 08:32:13;;;;;;;7.65;6.95;;;;;;;21.31;100.00;96352.03;5052186;28;20059;-59
2022/05/04 08:34:41;;;;;;;7.43;6.20;;;;;;;21.26;100.00;96353.72;5049091;28;20065;-56
2022/05/04 08:37:10;;;;;;;6.47;5.88;;;;;;;20.56;100.00;96361.63;5051397;28;20056;-59
2022/05/04 08:39:39;;;;;;;7.22;5.55;;;;;;;20.60;100.00;96362.84;5067552;28;20098;-57
2022/05/04 08:42:08;;;;;;;5.75;5.25;;;;;;;21.30;100.00;96352.25;5066569;28;20084;-56
2022/05/04 08:44:38;;;;;;;7.63;6.00;;;;;;;21.29;100.00;96350.59;5064336;28;20088;-58
2022/05/04 08:47:07;;;;;;;7.40;6.40;;;;;;;20.93;100.00;96343.16;5057577;28;20537;-59
2022/05/04 08:49:36;;;;;;;7.22;6.53;;;;;;;21.87;100.00;96341.59;5059351;28;20040;-58
2022/05/04 08:52:06;;;;;;;6.25;5.65;;;;;;;21.44;100.00;96342.28;5064683;28;20068;-59
2022/05/04 08:54:34;;;;;;;5.77;5.27;;;;;;;21.60;100.00;96341.78;5052713;28;20075;-59
2022/05/04 08:57:04;;;;;;;6.95;5.72;;;;;;;21.60;100.00;96341.78;5060707;28;20466;-58
2022/05/04 08:59:33;;;;;;;;;;;;;;;21.61;100.00;96346.13;5075658;28;20072;-59
2022/05/04 09:02:01;;;;;;;6.95;5.68;;;;;;;20.79;100.00;96347.75;5054860;28;19952;-58
2022/05/04 09:04:30;;;;;;;5.78;5.25;;;;;;;21.24;100.00;96342.41;5065436;28;20569;-58
2022/05/04 09:07:00;;;;;;;7.03;5.28;;;;;;;21.94;100.00;96343.19;5058370;28;20071;-58
2022/05/04 09:09:29;;;;;;;6.10;5.45;;;;;;;21.37;100.00;96337.00;5054910;28;20073;-52
2022/05/04 09:12:04;;;;;;;6.00;5.40;;;;;;;22.40;100.00;96339.31;5064476;28;20080;-56
2022/05/04 09:14:35;;;;;;;6.15;5.60;;;;;;;22.74;93.83;96332.50;5072015;28;20075;-56
2022/05/04 09:17:04;;;;;;;5.97;4.50;;;;;;;21.73;85.20;96339.00;5049834;28;20080;-58
2022/05/04 09:19:32;;;;;;;5.32;4.55;;;;;;;21.34;95.06;96334.75;5055239;28;20065;-59
2022/05/04 09:22:01;;;;;;;5.95;5.05;;;;;;;22.10;92.25;96341.81;5055046;28;20068;-57
2022/05/04 09:24:30;;;;;;;6.00;5.40;;;;;;;22.27;89.76;96331.38;5062064;28;20136;-59
2022/05/04 09:26:59;;;;;;;5.93;5.43;;;;;;;22.89;85.04;96325.94;5066046;28;20083;-58
2022/05/04 09:29:35;;;;;;;6.75;6.05;;;;;;;22.14;87.73;96326.09;5073866;28;20491;-59
2022/05/04 09:32:13;;;;;;;7.15;6.45;;;;;;;21.67;100.00;96318.41;5051256;28;20476;-58
2022/05/04 09:34:49;;;;;;;7.85;6.15;;;;;;;22.61;95.91;96321.06;5053316;28;20068;-58
2022/05/04 09:45:53;;;;;;;7.90;6.95;;;;;;;22.26;100.00;96305.53;5060437;28;20065;-57
2022/05/04 09:48:29;;;;;;;7.93;7.22;;;;;;;22.70;100.00;96311.69;5060609;28;20076;-58
2022/05/04 09:51:01;;;;;;;7.35;6.65;;;;;;;22.84;100.00;96307.78;5055748;28;20099;-59
2022/05/04 09:53:29;;;;;;;7.28;6.57;;;;;;;22.83;100.00;96310.72;5063659;28;20065;-59
2022/05/04 09:55:58;;;;;;;7.43;6.68;;;;;;;22.58;100.00;96314.31;5072983;28;20056;-58
2022/05/04 09:58:27;;;;;;;7.53;6.72;;;;;;;23.30;96.31;96316.34;5055091;28;20084;-60
2022/05/04 10:00:59;;;;;;;7.07;6.22;;;;;;;23.03;96.72;96313.19;5064597;28;20065;-57
2022/05/04 10:03:28;;;;;;;6.93;6.30;;;;;;;23.56;100.00;96304.34;5048226;28;20065;-60
2022/05/04 10:05:56;;;;;;;7.13;6.43;;;;;;;22.36;100.00;96311.22;5063122;28;20088;-59
2022/05/04 10:08:24;;;;;;;7.55;6.63;;;;;;;22.23;100.00;96311.38;5060069;28;20079;-59
2022/05/04 10:10:54;;;;;;;9.13;6.75;;;;;;;22.45;100.00;96298.31;5058340;28;20064;-58
2022/05/04 10:13:24;;;;;;;7.30;6.60;;;;;;;21.27;100.00;96302.56;5053323;28;20075;-59
2022/05/04 10:15:54;;;;;;;6.72;6.13;;;;;;;21.79;100.00;96302.44;5055206;28;20064;-59
2022/05/04 10:18:27;;;;;;;6.70;6.03;;;;;;;21.66;100.00;96297.97;5052646;28;20552;-60
2022/05/04 10:21:01;;;;;;;6.30;5.70;;;;;;;22.62;98.90;96290.47;5061267;28;20096;-60
2022/05/04 10:23:32;;;;;;;6.88;6.18;;;;;;;22.56;90.00;96286.00;5069690;28;20072;-56
2022/05/04 10:26:01;;;;;;;7.57;6.72;;;;;;;22.64;98.02;96291.06;5071434;28;20071;-60
2022/05/04 10:28:36;;;;;;;7.35;6.22;;;;;;;22.74;92.59;96292.19;5068765;28;20554;-59
2022/05/04 10:31:09;;;;;;;7.22;6.47;;;;;;;22.20;97.98;96283.09;5076121;28;20091;-56
2022/05/04 10:33:41;;;;;;;6.55;5.95;;;;;;;22.61;88.32;96280.75;5070624;28;20061;-58
2022/05/04 10:36:29;;;;;;;8.23;6.57;;;;;;;21.65;99.79;96282.94;5077738;28;20069;-59
2022/05/04 10:38:58;;;;;;;8.25;6.40;;;;;;;22.45;88.65;96283.00;5074514;28;20072;-58
2022/05/04 10:41:37;;;;;;;7.77;6.40;;;;;;;21.82;100.00;96283.19;5059234;28;20072;-59
2022/05/04 10:44:10;;;;;;;7.38;6.18;;;;;;;21.66;100.00;96273.00;5065277;28;20523;-58
2022/05/04 10:46:39;;;;;;;8.95;7.13;;;;;;;21.88;100.00;96271.56;5051877;28;20072;-56
2022/05/04 10:49:14;;;;;;;7.93;7.23;;;;;;;22.26;100.00;96262.53;5067592;28;20037;-58
2022/05/04 10:51:43;;;;;;;8.13;7.32;;;;;;;22.48;100.00;96263.75;5057801;28;20060;-58
2022/05/04 10:54:13;;;;;;;9.05;7.57;;;;;;;22.01;100.00;96267.94;5062463;28;20092;-60
2022/05/04 10:56:44;;;;;;;8.50;7.60;;;;;;;21.74;100.00;96265.50;5056250;28;20087;-59
2022/05/04 10:59:13;;;;;;;8.30;7.50;;;;;;;22.15;100.00;96261.41;5078310;28;20178;-59
2022/05/04 11:01:41;;;;;;;8.52;7.70;;;;;;;22.61;100.00;96256.56;5064826;28;20544;-59
2022/05/04 11:04:22;;;;;;;7.38;6.68;;;;;;;23.01;100.00;96266.84;5062142;28;20067;-56
2022/05/04 11:06:51;;;;;;;;;;;;;;;22.86;100.00;96261.88;5060445;28;20467;-58
2022/05/04 11:09:21;;;;;;;7.05;6.38;;;;;;;22.78;100.00;96254.09;5055464;28;19968;-59
2022/05/04 11:11:51;;;;;;;7.40;6.70;;;;;;;24.23;90.06;96253.75;5065136;28;20099;-58
2022/05/04 11:14:22;;;;;;;7.78;7.03;;;;;;;23.68;93.70;96249.53;5056033;28;20083;-56
2022/05/04 11:16:52;;;;;;;7.85;7.03;;;;;;;24.16;79.07;96244.97;5068045;28;20048;-58
2022/05/04 11:19:24;;;;;;;8.15;6.97;;;;;;;24.86;70.68;96249.41;5073748;28;20060;-59
2022/05/04 11:21:53;;;;;;;6.90;6.03;;;;;;;24.08;67.42;96239.91;5057416;28;20063;-56
2022/05/04 11:24:21;;;;;;;5.25;4.75;;;;;;;24.07;64.77;96235.59;5064139;28;20084;-59
2022/05/04 11:26:51;;;;;;;5.57;4.05;;;;;;;23.81;65.15;96243.09;5061945;28;20127;-58
2022/05/04 11:29:21;;;;;;;5.30;3.70;;;;;;;23.47;62.80;96250.06;5066731;28;20079;-57
2022/05/04 11:31:54;;;;;;;3.40;3.05;;;;;;;23.59;62.60;96250.06;5081511;28;20079;-58
2022/05/04 11:34:25;;;;;;;3.70;2.92;;;;;;;23.79;54.89;96245.19;5064174;28;20095;-56
2022/05/04 11:36:56;;;;;;;4.47;3.90;;;;;;;22.26;65.94;96246.44;5060764;28;20064;-59
2022/05/04 11:39:27;;;;;;;3.40;3.10;;;;;;;22.21;71.09;96240.91;5054717;28;20072;-57
2022/05/04 11:41:56;;;;;;;3.72;3.30;;;;;;;22.98;64.48;96235.84;5063428;28;20083;-59
2022/05/04 11:44:25;;;;;;;4.88;3.80;;;;;;;22.71;67.09;96235.34;5058775;28;20068;-59
2022/05/04 11:46:55;;;;;;;4.80;4.00;;;;;;;22.69;69.34;96234.78;5061113;28;20078;-60
2022/05/04 11:49:26;;;;;;;5.33;4.10;;;;;;;22.07;72.34;96234.03;5053978;28;20068;-58
2022/05/04 11:51:55;;;;;;;5.05;4.25;;;;;;;21.87;74.27;96229.66;5050660;28;20482;-59
2022/05/04 11:54:24;;;;;;;4.60;4.20;;;;;;;21.91;74.51;96233.53;5054268;28;20087;-57
2022/05/04 11:56:54;;;;;;;5.30;4.80;;;;;;;22.21;79.97;96228.31;5067516;28;20118;-58
2022/05/04 11:59:29;;;;;;;4.93;4.40;;;;;;;22.19;80.50;96229.56;5073950;28;20079;-59
2022/05/04 12:01:57;;;;;;;6.68;4.50;;;;;;;22.33;80.35;96230.25;5061055;28;20064;-58
2022/05/04 12:04:27;;;;;;;6.82;4.88;;;;;;;22.42;80.24;96226.22;5062354;28;20072;-57
2022/05/04 12:06:56;;;;;;;;;;;;;;;22.21;75.52;96222.13;5065210;28;20063;-59
2022/05/04 12:09:24;;;;;;;6.05;4.63;;;;;;;22.61;76.05;96221.63;5055562;28;20358;-59
2022/05/04 12:11:52;;;;;;;5.70;4.57;;;;;;;22.49;74.52;96224.25;5055797;28;20068;-59